SAS336 ENGM-ENVA
Flight info
| Callsign | SAS336 |
|---|---|
| Flight time | 0h 40m |
| Altitude | 30000 |
| Route | RIBBE DCT GIGNI DCT VEVOD |
| Aircraft | A320/M-SDE3FGHIRWY/LB1 |
Departure
| Time | 2026-05-04 10:25 |
|---|---|
| Airport | Oslo-Gardermoen International Airport (ENGM) |
Arrival
| Time | 2026-05-04 11:05 |
|---|---|
| Airport | Trondheim Airport, Værnes (ENVA) |
| Time | Latitude | Longitude | Altitude | Speed | Heading |
|---|---|---|---|---|---|
| 2026-05-04 09:46 | 60.19550 | 11.09500 | 680 ft | 0 kts | 196° |
| 2026-05-04 10:04 | 60.19550 | 11.09501 | 685 ft | 0 kts | 196° |
| 2026-05-04 10:06 | 60.19551 | 11.09501 | 685 ft | 0 kts | 196° |
| 2026-05-04 10:13 | 60.19571 | 11.09513 | 682 ft | 4 kts | 196° |
| 2026-05-04 10:13 | 60.19589 | 11.09522 | 678 ft | 4 kts | 196° |
| 2026-05-04 10:13 | 60.19599 | 11.09528 | 685 ft | 0 kts | 196° |
| 2026-05-04 10:19 | 60.19611 | 11.09504 | 683 ft | 5 kts | 334° |
| 2026-05-04 10:19 | 60.19675 | 11.09427 | 683 ft | 16 kts | 306° |
| 2026-05-04 10:19 | 60.19713 | 11.09190 | 682 ft | 18 kts | 287° |
| 2026-05-04 10:19 | 60.19743 | 11.08988 | 682 ft | 15 kts | 287° |
| 2026-05-04 10:20 | 60.19775 | 11.08751 | 677 ft | 14 kts | 286° |
| 2026-05-04 10:20 | 60.19742 | 11.08652 | 679 ft | 10 kts | 201° |
| 2026-05-04 10:20 | 60.19631 | 11.08588 | 678 ft | 22 kts | 195° |
| 2026-05-04 10:20 | 60.19479 | 11.08501 | 676 ft | 22 kts | 197° |
| 2026-05-04 10:21 | 60.19322 | 11.08407 | 675 ft | 20 kts | 198° |
| 2026-05-04 10:21 | 60.19246 | 11.08356 | 674 ft | 10 kts | 209° |
| 2026-05-04 10:21 | 60.19238 | 11.08200 | 672 ft | 13 kts | 286° |
| 2026-05-04 10:21 | 60.19254 | 11.08085 | 672 ft | 0 kts | 285° |
| 2026-05-04 10:22 | 60.19268 | 11.07986 | 672 ft | 10 kts | 285° |
| 2026-05-04 10:22 | 60.19289 | 11.07864 | 672 ft | 7 kts | 305° |
| 2026-05-04 10:22 | 60.19340 | 11.07860 | 672 ft | 9 kts | 14° |
| 2026-05-04 10:23 | 60.19379 | 11.07881 | 672 ft | 0 kts | 17° |
| 2026-05-04 10:23 | 60.19381 | 11.07882 | 672 ft | 2 kts | 17° |
| 2026-05-04 10:25 | 60.25665 | 11.11574 | 2359 ft | 213 kts | 7° |
| 2026-05-04 10:25 | 60.27213 | 11.11606 | 2712 ft | 233 kts | 346° |
| 2026-05-04 10:25 | 60.28875 | 11.11065 | 3401 ft | 249 kts | 346° |
| 2026-05-04 10:25 | 60.30606 | 11.10420 | 4312 ft | 255 kts | 345° |
| 2026-05-04 10:26 | 60.32337 | 11.09739 | 5236 ft | 259 kts | 345° |
| 2026-05-04 10:26 | 60.34131 | 11.09182 | 6211 ft | 265 kts | 355° |
| 2026-05-04 10:26 | 60.35977 | 11.09855 | 7069 ft | 277 kts | 17° |
| 2026-05-04 10:26 | 60.37772 | 11.11348 | 7987 ft | 281 kts | 19° |
| 2026-05-04 10:27 | 60.39584 | 11.12924 | 8849 ft | 286 kts | 19° |
| 2026-05-04 10:27 | 60.41423 | 11.14545 | 9701 ft | 291 kts | 18° |
| 2026-05-04 10:27 | 60.43345 | 11.16080 | 10130 ft | 305 kts | 8° |
| 2026-05-04 10:27 | 60.45500 | 11.16674 | 10412 ft | 321 kts | 0° |
| 2026-05-04 10:28 | 60.47755 | 11.17113 | 10989 ft | 329 kts | 360° |
| 2026-05-04 10:28 | 60.50045 | 11.17545 | 11688 ft | 334 kts | 359° |
| 2026-05-04 10:28 | 60.52378 | 11.17987 | 12364 ft | 340 kts | 359° |
| 2026-05-04 10:28 | 60.54751 | 11.18444 | 13054 ft | 345 kts | 359° |
| 2026-05-04 10:29 | 60.57161 | 11.18915 | 13700 ft | 351 kts | 359° |
| 2026-05-04 10:29 | 60.59603 | 11.19399 | 14363 ft | 355 kts | 359° |
| 2026-05-04 10:29 | 60.62078 | 11.19891 | 14990 ft | 359 kts | 358° |
| 2026-05-04 10:29 | 60.64578 | 11.20387 | 15592 ft | 364 kts | 358° |
| 2026-05-04 10:30 | 60.67114 | 11.20887 | 16181 ft | 368 kts | 358° |
| 2026-05-04 10:30 | 60.69677 | 11.21395 | 16776 ft | 373 kts | 358° |
| 2026-05-04 10:30 | 60.72280 | 11.21913 | 17409 ft | 377 kts | 357° |
| 2026-05-04 10:30 | 60.74905 | 11.22437 | 18011 ft | 382 kts | 357° |
| 2026-05-04 10:31 | 60.77569 | 11.22972 | 18547 ft | 387 kts | 357° |
| 2026-05-04 10:31 | 60.80263 | 11.23518 | 19116 ft | 391 kts | 357° |
| 2026-05-04 10:32 | 60.97010 | 11.26900 | 22457 ft | 416 kts | 356° |
| 2026-05-04 10:33 | 60.99909 | 11.27495 | 22990 ft | 420 kts | 356° |
| 2026-05-04 10:33 | 61.02819 | 11.28087 | 23457 ft | 424 kts | 356° |
| 2026-05-04 10:33 | 61.05777 | 11.28687 | 23886 ft | 427 kts | 356° |
| 2026-05-04 10:33 | 61.08742 | 11.29289 | 24331 ft | 430 kts | 356° |
| 2026-05-04 10:34 | 61.11729 | 11.29898 | 24756 ft | 433 kts | 356° |
| 2026-05-04 10:34 | 61.14736 | 11.30516 | 25189 ft | 435 kts | 356° |
| 2026-05-04 10:34 | 61.17761 | 11.31141 | 25614 ft | 438 kts | 356° |
| 2026-05-04 10:34 | 61.20801 | 11.31769 | 26023 ft | 441 kts | 356° |
| 2026-05-04 10:35 | 61.23861 | 11.32401 | 26437 ft | 443 kts | 356° |
| 2026-05-04 10:35 | 61.26939 | 11.33037 | 26844 ft | 446 kts | 356° |
| 2026-05-04 10:35 | 61.30032 | 11.33675 | 27248 ft | 449 kts | 356° |
| 2026-05-04 10:35 | 61.33149 | 11.34317 | 27646 ft | 451 kts | 356° |
| 2026-05-04 10:36 | 61.36283 | 11.34966 | 28033 ft | 454 kts | 356° |
| 2026-05-04 10:36 | 61.39434 | 11.35626 | 28381 ft | 456 kts | 356° |
| 2026-05-04 10:36 | 61.42603 | 11.36294 | 28757 ft | 459 kts | 356° |
| 2026-05-04 10:36 | 61.45793 | 11.36967 | 29249 ft | 463 kts | 356° |
| 2026-05-04 10:37 | 61.49019 | 11.37643 | 29502 ft | 469 kts | 356° |
| 2026-05-04 10:37 | 61.52275 | 11.38328 | 29659 ft | 469 kts | 356° |
| 2026-05-04 10:37 | 61.55471 | 11.39025 | 29676 ft | 455 kts | 356° |
| 2026-05-04 10:37 | 61.58598 | 11.39712 | 29677 ft | 450 kts | 355° |
| 2026-05-04 10:39 | 61.77125 | 11.43626 | 29301 ft | 440 kts | 356° |
| 2026-05-04 10:39 | 61.80164 | 11.44291 | 29015 ft | 437 kts | 356° |
| 2026-05-04 10:39 | 61.83186 | 11.44940 | 28724 ft | 435 kts | 356° |
| 2026-05-04 10:40 | 61.86192 | 11.45576 | 28442 ft | 433 kts | 356° |
| 2026-05-04 10:40 | 61.89181 | 11.46207 | 28158 ft | 431 kts | 356° |
| 2026-05-04 10:40 | 61.92156 | 11.46838 | 27881 ft | 429 kts | 356° |
| 2026-05-04 10:40 | 61.95115 | 11.47480 | 27589 ft | 425 kts | 356° |
| 2026-05-04 10:41 | 61.98047 | 11.48117 | 27188 ft | 422 kts | 355° |
| 2026-05-04 10:41 | 62.00931 | 11.48281 | 26795 ft | 407 kts | 345° |
| 2026-05-04 10:41 | 62.03713 | 11.47703 | 26419 ft | 399 kts | 342° |
| 2026-05-04 10:41 | 62.06462 | 11.47066 | 26095 ft | 397 kts | 342° |
| 2026-05-04 10:42 | 62.09209 | 11.46423 | 25676 ft | 396 kts | 342° |
| 2026-05-04 10:42 | 62.11943 | 11.45780 | 25286 ft | 395 kts | 342° |
| 2026-05-04 10:42 | 62.14668 | 11.45142 | 24898 ft | 393 kts | 342° |
| 2026-05-04 10:42 | 62.17383 | 11.44507 | 24505 ft | 393 kts | 342° |
| 2026-05-04 10:43 | 62.20095 | 11.43870 | 24101 ft | 391 kts | 342° |
| 2026-05-04 10:44 | 62.38786 | 11.39488 | 21094 ft | 377 kts | 344° |
| 2026-05-04 10:45 | 62.41382 | 11.38871 | 20677 ft | 374 kts | 345° |
| 2026-05-04 10:45 | 62.43934 | 11.38274 | 20257 ft | 362 kts | 345° |
| 2026-05-04 10:45 | 62.46385 | 11.37714 | 19864 ft | 347 kts | 345° |
| 2026-05-04 10:45 | 62.48742 | 11.37174 | 19467 ft | 336 kts | 345° |
| 2026-05-04 10:46 | 62.51064 | 11.36620 | 19072 ft | 335 kts | 345° |
| 2026-05-04 10:46 | 62.53369 | 11.36052 | 18692 ft | 333 kts | 345° |
| 2026-05-04 10:46 | 62.55675 | 11.35479 | 18301 ft | 333 kts | 346° |
| 2026-05-04 10:46 | 62.57971 | 11.34913 | 17792 ft | 332 kts | 346° |
| 2026-05-04 10:47 | 62.60259 | 11.34356 | 17382 ft | 329 kts | 346° |
| 2026-05-04 10:47 | 62.62525 | 11.33808 | 16996 ft | 327 kts | 347° |
| 2026-05-04 10:47 | 62.64773 | 11.33271 | 16615 ft | 324 kts | 347° |
| 2026-05-04 10:47 | 62.67004 | 11.32738 | 16234 ft | 321 kts | 347° |
| 2026-05-04 10:49 | 62.82389 | 11.29001 | 13643 ft | 313 kts | 349° |
| 2026-05-04 10:49 | 62.84527 | 11.28582 | 13246 ft | 313 kts | 352° |
| 2026-05-04 10:50 | 62.86684 | 11.28363 | 12865 ft | 308 kts | 354° |
| 2026-05-04 10:51 | 63.00523 | 11.27508 | 10319 ft | 266 kts | 351° |
| 2026-05-04 10:52 | 63.02331 | 11.27241 | 9999 ft | 255 kts | 348° |
| 2026-05-04 10:52 | 63.04085 | 11.26896 | 9719 ft | 251 kts | 347° |
| 2026-05-04 10:52 | 63.05813 | 11.26524 | 9413 ft | 249 kts | 347° |
| 2026-05-04 10:54 | 63.17531 | 11.24087 | 7433 ft | 235 kts | 347° |
| 2026-05-04 10:54 | 63.19160 | 11.23760 | 7226 ft | 235 kts | 346° |
| 2026-05-04 10:56 | 63.29897 | 11.21597 | 5095 ft | 216 kts | 346° |
| 2026-05-04 10:56 | 63.31400 | 11.21324 | 4654 ft | 219 kts | 351° |
| 2026-05-04 10:56 | 63.32905 | 11.21333 | 4513 ft | 214 kts | 351° |
| 2026-05-04 10:57 | 63.34400 | 11.21334 | 4444 ft | 216 kts | 352° |
| 2026-05-04 10:57 | 63.35934 | 11.21321 | 3784 ft | 224 kts | 352° |
| 2026-05-04 10:57 | 63.37517 | 11.21307 | 3232 ft | 228 kts | 352° |
| 2026-05-04 10:57 | 63.39050 | 11.21323 | 3159 ft | 209 kts | 353° |
| 2026-05-04 10:58 | 63.39986 | 11.21316 | 3105 ft | 199 kts | 348° |
| 2026-05-04 10:58 | 63.41350 | 11.21042 | 2780 ft | 191 kts | 341° |
| 2026-05-04 10:58 | 63.42585 | 11.20245 | 2629 ft | 176 kts | 327° |
| 2026-05-04 10:58 | 63.43581 | 11.18997 | 2450 ft | 154 kts | 314° |
| 2026-05-04 10:59 | 63.44319 | 11.17538 | 2291 ft | 133 kts | 304° |
| 2026-05-04 10:59 | 63.44865 | 11.15965 | 2158 ft | 125 kts | 295° |
| 2026-05-04 10:59 | 63.45273 | 11.14259 | 1993 ft | 124 kts | 288° |
| 2026-05-04 10:59 | 63.45553 | 11.12448 | 1834 ft | 122 kts | 279° |
| 2026-05-04 11:00 | 63.45697 | 11.10596 | 1664 ft | 121 kts | 272° |
| 2026-05-04 11:01 | 63.45770 | 10.97341 | 408 ft | 120 kts | 265° |
| 2026-05-04 11:02 | 63.45765 | 10.95469 | 230 ft | 121 kts | 265° |
| 2026-05-04 11:02 | 63.45761 | 10.93601 | 68 ft | 120 kts | 266° |
| 2026-05-04 11:05 | 63.45497 | 10.91663 | 39 ft | 0 kts | 180° |
| 2026-05-04 11:06 | 63.45498 | 10.91663 | 39 ft | 0 kts | 180° |